Decoded Metar for ETNL (LAAGE in GERMANY) (IATA:RLG) | Meteo·Mobile Aviation Weather
aviador You're here:

ETNL Decoded Metar

LAAGE in GERMANY
Report Time2018-10-23 00:20:00
UTC Time2018-10-23 00:45:05
Flight Rules vfr VFR
Wind230° at 09 kt
W.Decomp.*RWY 28: 5.4 kt HW 7.2 kt LCW
W.Rank230° ranks 3
Current wind is above 230° avg. (6.9)
Visibility9999 m
Phenomena:N/A
Clouds:Few 030 Hf
Broken 130 Hf
Expected CloudBase > 1,200 ft AGL from Temp-Dew spread
Ceiling13,000 ft
Temp07°C (ISA -8)
Dew Point04°C (81% RH)
AAT2.4°C
QNH1021 hPa
Density Alt-961 ft
Elevation131 ft
Report Wrong Elevation
Raw Report
METAR ETNL 230020Z 23009KT 9999 FEW030 BKN130 07/04 Q1021 BLU=

Extra information for ETNL:More info

Metar Taf Metar & Taf Last 4 Metars F.Rules Stats Wind Profile Meteogram Temp Stats Airport Information Weather charts Add Link Nearby VenuesMetar ALERT Operation Metar Decoded Social comments